sensor_id;sensor_type;location;lat;lon;timestamp;pressure;altitude;pressure_sealevel;temperature;humidity
75745;BME280;64359;51.366;-0.222;2023-01-09T00:00:22;98577.73;;;20.73;54.01
75745;BME280;64359;51.366;-0.222;2023-01-09T00:01:29;98581.23;;;20.72;53.97
75745;BME280;64359;51.366;-0.222;2023-01-09T00:02:34;98580.63;;;20.71;54.04
75745;BME280;64359;51.366;-0.222;2023-01-09T00:03:42;98585.06;;;20.71;54.00
75745;BME280;64359;51.366;-0.222;2023-01-09T00:04:46;98585.08;;;20.69;53.97
75745;BME280;64359;51.366;-0.222;2023-01-09T00:05:51;98587.77;;;20.68;53.95
75745;BME280;64359;51.366;-0.222;2023-01-09T00:06:55;98591.06;;;20.68;53.98
75745;BME280;64359;51.366;-0.222;2023-01-09T00:08:00;98593.76;;;20.67;53.99
75745;BME280;64359;51.366;-0.222;2023-01-09T00:09:04;98597.15;;;20.66;54.04
75745;BME280;64359;51.366;-0.222;2023-01-09T00:10:11;98603.41;;;20.65;54.12
75745;BME280;64359;51.366;-0.222;2023-01-09T00:11:17;98605.17;;;20.64;54.10
75745;BME280;64359;51.366;-0.222;2023-01-09T00:12:21;98603.09;;;20.63;54.08
75745;BME280;64359;51.366;-0.222;2023-01-09T00:13:26;98609.73;;;20.62;54.06
75745;BME280;64359;51.366;-0.222;2023-01-09T00:14:30;98611.06;;;20.61;54.04
75745;BME280;64359;51.366;-0.222;2023-01-09T00:15:35;98610.25;;;20.61;54.05
75745;BME280;64359;51.366;-0.222;2023-01-09T00:16:39;98609.71;;;20.61;54.05
75745;BME280;64359;51.366;-0.222;2023-01-09T00:17:44;98607.42;;;20.61;53.99
75745;BME280;64359;51.366;-0.222;2023-01-09T00:18:50;98611.90;;;20.60;54.02
75745;BME280;64359;51.366;-0.222;2023-01-09T00:19:55;98610.61;;;20.59;54.04
75745;BME280;64359;51.366;-0.222;2023-01-09T00:21:01;98616.79;;;20.58;53.96
75745;BME280;64359;51.366;-0.222;2023-01-09T00:22:05;98622.28;;;20.58;54.02
75745;BME280;64359;51.366;-0.222;2023-01-09T00:23:11;98624.03;;;20.57;53.98
75745;BME280;64359;51.366;-0.222;2023-01-09T00:24:16;98623.98;;;20.56;54.03
75745;BME280;64359;51.366;-0.222;2023-01-09T00:25:20;98624.33;;;20.55;54.05
75745;BME280;64359;51.366;-0.222;2023-01-09T00:26:25;98627.02;;;20.54;54.05
75745;BME280;64359;51.366;-0.222;2023-01-09T00:27:31;98627.11;;;20.53;54.01
75745;BME280;64359;51.366;-0.222;2023-01-09T00:28:37;98630.73;;;20.53;54.07
75745;BME280;64359;51.366;-0.222;2023-01-09T00:29:42;98635.20;;;20.52;54.07
75745;BME280;64359;51.366;-0.222;2023-01-09T00:30:56;98637.63;;;20.52;54.07
75745;BME280;64359;51.366;-0.222;2023-01-09T00:32:00;98638.52;;;20.51;54.14
75745;BME280;64359;51.366;-0.222;2023-01-09T00:33:05;98641.70;;;20.50;54.08
75745;BME280;64359;51.366;-0.222;2023-01-09T00:34:09;98646.45;;;20.49;54.05
75745;BME280;64359;51.366;-0.222;2023-01-09T00:35:16;98648.70;;;20.49;54.05
75745;BME280;64359;51.366;-0.222;2023-01-09T00:36:21;98650.27;;;20.48;54.04
75745;BME280;64359;51.366;-0.222;2023-01-09T00:37:25;98651.98;;;20.48;54.14
75745;BME280;64359;51.366;-0.222;2023-01-09T00:38:29;98652.50;;;20.46;54.12
75745;BME280;64359;51.366;-0.222;2023-01-09T00:39:34;98654.39;;;20.46;54.08
75745;BME280;64359;51.366;-0.222;2023-01-09T00:40:38;98655.19;;;20.46;53.99
75745;BME280;64359;51.366;-0.222;2023-01-09T00:41:44;98659.82;;;20.45;54.09
75745;BME280;64359;51.366;-0.222;2023-01-09T00:42:51;98664.02;;;20.44;54.06
75745;BME280;64359;51.366;-0.222;2023-01-09T00:44:02;98662.23;;;20.43;54.09
75745;BME280;64359;51.366;-0.222;2023-01-09T00:45:12;98669.27;;;20.42;54.10
75745;BME280;64359;51.366;-0.222;2023-01-09T00:46:18;98673.54;;;20.41;54.08
75745;BME280;64359;51.366;-0.222;2023-01-09T00:47:26;98674.70;;;20.41;54.01
75745;BME280;64359;51.366;-0.222;2023-01-09T00:48:32;98674.88;;;20.39;54.08
75745;BME280;64359;51.366;-0.222;2023-01-09T00:49:38;98678.80;;;20.39;53.93
75745;BME280;64359;51.366;-0.222;2023-01-09T00:50:44;98678.89;;;20.38;54.05
75745;BME280;64359;51.366;-0.222;2023-01-09T00:51:48;98684.23;;;20.37;54.09
75745;BME280;64359;51.366;-0.222;2023-01-09T00:52:54;98685.63;;;20.37;54.10
75745;BME280;64359;51.366;-0.222;2023-01-09T00:54:00;98690.26;;;20.36;54.10
75745;BME280;64359;51.366;-0.222;2023-01-09T00:55:06;98695.59;;;20.35;54.14
75745;BME280;64359;51.366;-0.222;2023-01-09T00:56:15;98698.67;;;20.35;54.11
75745;BME280;64359;51.366;-0.222;2023-01-09T00:57:20;98700.25;;;20.34;54.19
75745;BME280;64359;51.366;-0.222;2023-01-09T00:58:24;98700.01;;;20.33;54.15
75745;BME280;64359;51.366;-0.222;2023-01-09T00:59:29;98704.59;;;20.33;54.14
75745;BME280;64359;51.366;-0.222;2023-01-09T01:00:34;98704.41;;;20.31;54.18
75745;BME280;64359;51.366;-0.222;2023-01-09T01:01:38;98710.08;;;20.31;54.17
75745;BME280;64359;51.366;-0.222;2023-01-09T01:02:43;98705.35;;;20.30;54.14
75745;BME280;64359;51.366;-0.222;2023-01-09T01:03:48;98705.98;;;20.30;53.98
75745;BME280;64359;51.366;-0.222;2023-01-09T01:04:52;98705.75;;;20.29;54.07
75745;BME280;64359;51.366;-0.222;2023-01-09T01:06:14;98710.77;;;20.28;54.13
75745;BME280;64359;51.366;-0.222;2023-01-09T01:07:36;98712.83;;;20.26;54.11
75745;BME280;64359;51.366;-0.222;2023-01-09T01:08:45;98712.59;;;20.25;54.15
75745;BME280;64359;51.366;-0.222;2023-01-09T01:09:49;98714.80;;;20.24;54.12
75745;BME280;64359;51.366;-0.222;2023-01-09T01:10:54;98716.52;;;20.24;54.19
75745;BME280;64359;51.366;-0.222;2023-01-09T01:11:59;98720.98;;;20.23;54.09
75745;BME280;64359;51.366;-0.222;2023-01-09T01:13:09;98716.96;;;20.22;54.12
75745;BME280;64359;51.366;-0.222;2023-01-09T01:14:14;98719.34;;;20.22;54.13
75745;BME280;64359;51.366;-0.222;2023-01-09T01:15:19;98724.55;;;20.21;54.11
75745;BME280;64359;51.366;-0.222;2023-01-09T01:16:24;98726.27;;;20.20;54.17
75745;BME280;64359;51.366;-0.222;2023-01-09T01:17:28;98732.54;;;20.19;54.18
75745;BME280;64359;51.366;-0.222;2023-01-09T01:18:33;98730.84;;;20.19;54.18
75745;BME280;64359;51.366;-0.222;2023-01-09T01:19:37;98734.77;;;20.18;54.04
75745;BME280;64359;51.366;-0.222;2023-01-09T01:20:42;98741.61;;;20.17;54.11
75745;BME280;64359;51.366;-0.222;2023-01-09T01:21:47;98740.23;;;20.16;54.14
75745;BME280;64359;51.366;-0.222;2023-01-09T01:22:51;98744.70;;;20.15;54.17
75745;BME280;64359;51.366;-0.222;2023-01-09T01:23:56;98743.81;;;20.14;54.20
75745;BME280;64359;51.366;-0.222;2023-01-09T01:25:00;98749.60;;;20.14;54.14
75745;BME280;64359;51.366;-0.222;2023-01-09T01:26:09;98753.90;;;20.13;54.11
75745;BME280;64359;51.366;-0.222;2023-01-09T01:27:12;98757.45;;;20.12;54.18
75745;BME280;64359;51.366;-0.222;2023-01-09T01:28:17;98757.33;;;20.10;54.26
75745;BME280;64359;51.366;-0.222;2023-01-09T01:29:22;98764.27;;;20.10;54.17
75745;BME280;64359;51.366;-0.222;2023-01-09T01:30:26;98770.04;;;20.09;54.17
75745;BME280;64359;51.366;-0.222;2023-01-09T01:31:33;98771.75;;;20.08;54.25
75745;BME280;64359;51.366;-0.222;2023-01-09T01:32:38;98776.91;;;20.07;54.27
75745;BME280;64359;51.366;-0.222;2023-01-09T01:33:43;98778.09;;;20.06;54.31
75745;BME280;64359;51.366;-0.222;2023-01-09T01:34:48;98780.89;;;20.06;54.24
75745;BME280;64359;51.366;-0.222;2023-01-09T01:36:00;98785.10;;;20.06;54.20
75745;BME280;64359;51.366;-0.222;2023-01-09T01:37:04;98787.98;;;20.04;54.19
75745;BME280;64359;51.366;-0.222;2023-01-09T01:38:08;98791.61;;;20.04;54.19
75745;BME280;64359;51.366;-0.222;2023-01-09T01:39:13;98795.48;;;20.04;54.22
75745;BME280;64359;51.366;-0.222;2023-01-09T01:40:17;98796.07;;;20.03;54.27
75745;BME280;64359;51.366;-0.222;2023-01-09T01:41:22;98796.21;;;20.03;54.27
75745;BME280;64359;51.366;-0.222;2023-01-09T01:42:32;98798.46;;;20.02;54.29
75745;BME280;64359;51.366;-0.222;2023-01-09T01:43:54;98799.52;;;20.01;54.35
75745;BME280;64359;51.366;-0.222;2023-01-09T01:45:02;98802.90;;;20.00;54.34
75745;BME280;64359;51.366;-0.222;2023-01-09T01:46:07;98806.02;;;20.00;54.26
75745;BME280;64359;51.366;-0.222;2023-01-09T01:47:12;98808.66;;;19.99;54.31
75745;BME280;64359;51.366;-0.222;2023-01-09T01:48:19;98809.13;;;19.98;54.35
75745;BME280;64359;51.366;-0.222;2023-01-09T01:49:24;98809.92;;;19.98;54.37
75745;BME280;64359;51.366;-0.222;2023-01-09T01:50:33;98812.55;;;19.97;54.33
75745;BME280;64359;51.366;-0.222;2023-01-09T01:51:40;98815.25;;;19.97;54.39
75745;BME280;64359;51.366;-0.222;2023-01-09T01:52:49;98814.60;;;19.97;54.26
75745;BME280;64359;51.366;-0.222;2023-01-09T01:53:58;98812.78;;;19.96;54.19
75745;BME280;64359;51.366;-0.222;2023-01-09T01:55:07;98819.69;;;19.95;54.34
75745;BME280;64359;51.366;-0.222;2023-01-09T01:56:23;98823.85;;;19.95;54.37
75745;BME280;64359;51.366;-0.222;2023-01-09T01:57:30;98827.00;;;19.93;54.35
75745;BME280;64359;51.366;-0.222;2023-01-09T01:58:40;98830.13;;;19.93;54.33
75745;BME280;64359;51.366;-0.222;2023-01-09T01:59:48;98832.09;;;19.91;54.38
75745;BME280;64359;51.366;-0.222;2023-01-09T02:00:54;98835.98;;;19.91;54.42
75745;BME280;64359;51.366;-0.222;2023-01-09T02:01:59;98838.02;;;19.90;54.32
75745;BME280;64359;51.366;-0.222;2023-01-09T02:03:06;98838.85;;;19.90;54.37
75745;BME280;64359;51.366;-0.222;2023-01-09T02:04:11;98842.67;;;19.89;54.28
75745;BME280;64359;51.366;-0.222;2023-01-09T02:05:16;98838.24;;;19.89;54.41
75745;BME280;64359;51.366;-0.222;2023-01-09T02:06:20;98839.30;;;19.88;54.46
75745;BME280;64359;51.366;-0.222;2023-01-09T02:07:25;98837.55;;;19.87;54.34
75745;BME280;64359;51.366;-0.222;2023-01-09T02:08:29;98841.34;;;19.87;54.51
75745;BME280;64359;51.366;-0.222;2023-01-09T02:09:34;98843.56;;;19.87;54.40
75745;BME280;64359;51.366;-0.222;2023-01-09T02:10:39;98849.93;;;19.86;54.34
75745;BME280;64359;51.366;-0.222;2023-01-09T02:11:46;98846.23;;;19.86;54.39
75745;BME280;64359;51.366;-0.222;2023-01-09T02:12:51;98856.55;;;19.86;54.34
75745;BME280;64359;51.366;-0.222;2023-01-09T02:13:56;98856.77;;;19.85;54.25
75745;BME280;64359;51.366;-0.222;2023-01-09T02:15:03;98862.25;;;19.85;54.33
75745;BME280;64359;51.366;-0.222;2023-01-09T02:16:18;98863.30;;;19.85;54.29
75745;BME280;64359;51.366;-0.222;2023-01-09T02:19:03;98870.26;;;19.83;54.32
75745;BME280;64359;51.366;-0.222;2023-01-09T02:20:35;98874.63;;;19.83;54.42
75745;BME280;64359;51.366;-0.222;2023-01-09T02:21:47;98878.59;;;19.81;54.33
75745;BME280;64359;51.366;-0.222;2023-01-09T02:23:02;98878.36;;;19.81;54.41
75745;BME280;64359;51.366;-0.222;2023-01-09T02:24:21;98879.20;;;19.80;54.46
75745;BME280;64359;51.366;-0.222;2023-01-09T02:25:51;98879.52;;;19.78;54.56
75745;BME280;64359;51.366;-0.222;2023-01-09T02:27:09;98883.06;;;19.77;54.54
75745;BME280;64359;51.366;-0.222;2023-01-09T02:28:37;98880.87;;;19.76;54.58
75745;BME280;64359;51.366;-0.222;2023-01-09T02:30:08;98880.95;;;19.74;54.71
75745;BME280;64359;51.366;-0.222;2023-01-09T02:31:20;98884.44;;;19.74;54.63
75745;BME280;64359;51.366;-0.222;2023-01-09T02:32:35;98882.58;;;19.73;54.58
75745;BME280;64359;51.366;-0.222;2023-01-09T02:33:50;98885.46;;;19.72;54.48
75745;BME280;64359;51.366;-0.222;2023-01-09T02:35:04;98888.42;;;19.71;54.64
75745;BME280;64359;51.366;-0.222;2023-01-09T02:36:13;98894.89;;;19.70;54.55
75745;BME280;64359;51.366;-0.222;2023-01-09T02:37:26;98898.05;;;19.70;54.50
75745;BME280;64359;51.366;-0.222;2023-01-09T02:38:43;98896.19;;;19.69;54.58
75745;BME280;64359;51.366;-0.222;2023-01-09T02:39:55;98898.98;;;19.69;54.61
75745;BME280;64359;51.366;-0.222;2023-01-09T02:41:05;98903.17;;;19.68;54.52
75745;BME280;64359;51.366;-0.222;2023-01-09T02:42:14;98906.94;;;19.67;54.60
75745;BME280;64359;51.366;-0.222;2023-01-09T02:43:21;98908.35;;;19.67;54.71
75745;BME280;64359;51.366;-0.222;2023-01-09T02:44:27;98908.33;;;19.66;54.61
75745;BME280;64359;51.366;-0.222;2023-01-09T02:45:31;98912.89;;;19.66;54.62
75745;BME280;64359;51.366;-0.222;2023-01-09T02:46:36;98912.61;;;19.65;54.71
75745;BME280;64359;51.366;-0.222;2023-01-09T02:47:45;98916.77;;;19.65;54.54
75745;BME280;64359;51.366;-0.222;2023-01-09T02:48:52;98918.47;;;19.64;54.61
75745;BME280;64359;51.366;-0.222;2023-01-09T02:50:00;98923.95;;;19.63;54.48
75745;BME280;64359;51.366;-0.222;2023-01-09T02:51:11;98925.08;;;19.63;54.57
75745;BME280;64359;51.366;-0.222;2023-01-09T02:52:29;98926.61;;;19.62;54.60
75745;BME280;64359;51.366;-0.222;2023-01-09T02:54:05;98927.67;;;19.61;54.47
75745;BME280;64359;51.366;-0.222;2023-01-09T02:55:23;98929.73;;;19.60;54.62
75745;BME280;64359;51.366;-0.222;2023-01-09T02:56:44;98928.56;;;19.59;54.54
75745;BME280;64359;51.366;-0.222;2023-01-09T02:57:59;98932.16;;;19.58;54.50
75745;BME280;64359;51.366;-0.222;2023-01-09T02:59:26;98930.13;;;19.57;54.55
75745;BME280;64359;51.366;-0.222;2023-01-09T03:00:42;98930.40;;;19.55;54.63
75745;BME280;64359;51.366;-0.222;2023-01-09T03:01:56;98931.29;;;19.54;54.52
75745;BME280;64359;51.366;-0.222;2023-01-09T03:03:08;98935.69;;;19.54;54.55
75745;BME280;64359;51.366;-0.222;2023-01-09T03:04:19;98943.04;;;19.52;54.51
75745;BME280;64359;51.366;-0.222;2023-01-09T03:05:30;98939.52;;;19.52;54.51
75745;BME280;64359;51.366;-0.222;2023-01-09T03:06:40;98940.80;;;19.52;54.55
75745;BME280;64359;51.366;-0.222;2023-01-09T03:07:55;98949.91;;;19.51;54.45
75745;BME280;64359;51.366;-0.222;2023-01-09T03:09:05;98947.09;;;19.51;54.46
75745;BME280;64359;51.366;-0.222;2023-01-09T03:10:11;98951.16;;;19.50;54.55
75745;BME280;64359;51.366;-0.222;2023-01-09T03:11:17;98951.93;;;19.48;54.52
75745;BME280;64359;51.366;-0.222;2023-01-09T03:12:27;98958.29;;;19.48;54.49
75745;BME280;64359;51.366;-0.222;2023-01-09T03:13:37;98964.36;;;19.47;54.43
75745;BME280;64359;51.366;-0.222;2023-01-09T03:14:47;98964.24;;;19.47;54.49
75745;BME280;64359;51.366;-0.222;2023-01-09T03:15:53;98964.59;;;19.45;54.59
75745;BME280;64359;51.366;-0.222;2023-01-09T03:17:03;98965.02;;;19.45;54.58
75745;BME280;64359;51.366;-0.222;2023-01-09T03:18:11;98968.84;;;19.45;54.47
75745;BME280;64359;51.366;-0.222;2023-01-09T03:19:21;98971.46;;;19.44;54.46
75745;BME280;64359;51.366;-0.222;2023-01-09T03:20:27;98973.02;;;19.43;54.53
75745;BME280;64359;51.366;-0.222;2023-01-09T03:21:33;98975.42;;;19.43;54.57
75745;BME280;64359;51.366;-0.222;2023-01-09T03:22:39;98975.77;;;19.42;54.59
75745;BME280;64359;51.366;-0.222;2023-01-09T03:23:53;98979.42;;;19.41;54.51
75745;BME280;64359;51.366;-0.222;2023-01-09T03:24:58;98983.59;;;19.41;54.52
75745;BME280;64359;51.366;-0.222;2023-01-09T03:26:02;98984.96;;;19.40;54.53
75745;BME280;64359;51.366;-0.222;2023-01-09T03:27:07;98985.20;;;19.40;54.46
75745;BME280;64359;51.366;-0.222;2023-01-09T03:28:20;98989.35;;;19.40;54.50
75745;BME280;64359;51.366;-0.222;2023-01-09T03:29:27;98992.64;;;19.39;54.44
75745;BME280;64359;51.366;-0.222;2023-01-09T03:30:34;98993.91;;;19.39;54.35
75745;BME280;64359;51.366;-0.222;2023-01-09T03:31:39;98995.45;;;19.39;54.41
75745;BME280;64359;51.366;-0.222;2023-01-09T03:32:43;99001.77;;;19.38;54.49
75745;BME280;64359;51.366;-0.222;2023-01-09T03:33:47;98999.70;;;19.38;54.49
75745;BME280;64359;51.366;-0.222;2023-01-09T03:34:52;99000.13;;;19.37;54.52
75745;BME280;64359;51.366;-0.222;2023-01-09T03:35:56;99000.92;;;19.37;54.30
75745;BME280;64359;51.366;-0.222;2023-01-09T03:37:00;98997.72;;;19.37;54.42
75745;BME280;64359;51.366;-0.222;2023-01-09T03:38:06;99002.13;;;19.36;54.40
75745;BME280;64359;51.366;-0.222;2023-01-09T03:39:11;99003.30;;;19.36;54.35
75745;BME280;64359;51.366;-0.222;2023-01-09T03:40:16;99006.75;;;19.35;54.35
75745;BME280;64359;51.366;-0.222;2023-01-09T03:41:20;99010.03;;;19.35;54.39
75745;BME280;64359;51.366;-0.222;2023-01-09T03:42:24;99009.46;;;19.34;54.21
75745;BME280;64359;51.366;-0.222;2023-01-09T03:43:29;99012.05;;;19.33;54.30
75745;BME280;64359;51.366;-0.222;2023-01-09T03:44:33;99013.92;;;19.33;54.28
75745;BME280;64359;51.366;-0.222;2023-01-09T03:45:38;99015.05;;;19.32;54.46
75745;BME280;64359;51.366;-0.222;2023-01-09T03:46:42;99020.69;;;19.32;54.34
75745;BME280;64359;51.366;-0.222;2023-01-09T03:47:46;99026.73;;;19.31;54.38
75745;BME280;64359;51.366;-0.222;2023-01-09T03:48:51;99024.40;;;19.31;54.39
75745;BME280;64359;51.366;-0.222;2023-01-09T03:49:55;99026.60;;;19.31;54.37
75745;BME280;64359;51.366;-0.222;2023-01-09T03:50:59;99028.02;;;19.30;54.41
75745;BME280;64359;51.366;-0.222;2023-01-09T03:52:04;99030.23;;;19.30;54.44
75745;BME280;64359;51.366;-0.222;2023-01-09T03:53:08;99031.56;;;19.29;54.44
75745;BME280;64359;51.366;-0.222;2023-01-09T03:54:15;99031.27;;;19.29;54.42
75745;BME280;64359;51.366;-0.222;2023-01-09T03:55:19;99030.45;;;19.28;54.41
75745;BME280;64359;51.366;-0.222;2023-01-09T03:56:23;99031.45;;;19.27;54.42
75745;BME280;64359;51.366;-0.222;2023-01-09T03:57:28;99033.21;;;19.26;54.49
75745;BME280;64359;51.366;-0.222;2023-01-09T03:58:32;99033.09;;;19.26;54.49
75745;BME280;64359;51.366;-0.222;2023-01-09T03:59:37;99035.71;;;19.25;54.47
75745;BME280;64359;51.366;-0.222;2023-01-09T04:00:42;99039.04;;;19.25;54.39
75745;BME280;64359;51.366;-0.222;2023-01-09T04:01:47;99041.23;;;19.24;54.46
75745;BME280;64359;51.366;-0.222;2023-01-09T04:02:52;99045.39;;;19.24;54.41
75745;BME280;64359;51.366;-0.222;2023-01-09T04:03:56;99046.18;;;19.24;54.44
75745;BME280;64359;51.366;-0.222;2023-01-09T04:05:00;99049.85;;;19.23;54.44
75745;BME280;64359;51.366;-0.222;2023-01-09T04:06:05;99050.67;;;19.23;54.30
75745;BME280;64359;51.366;-0.222;2023-01-09T04:07:10;99053.55;;;19.23;54.48
75745;BME280;64359;51.366;-0.222;2023-01-09T04:08:14;99059.20;;;19.22;54.33
75745;BME280;64359;51.366;-0.222;2023-01-09T04:09:19;99059.61;;;19.22;54.37
75745;BME280;64359;51.366;-0.222;2023-01-09T04:10:23;99059.66;;;19.22;54.36
75745;BME280;64359;51.366;-0.222;2023-01-09T04:11:27;99061.25;;;19.20;54.21
75745;BME280;64359;51.366;-0.222;2023-01-09T04:12:32;99067.45;;;19.20;54.44
75745;BME280;64359;51.366;-0.222;2023-01-09T04:13:36;99066.95;;;19.20;54.35
75745;BME280;64359;51.366;-0.222;2023-01-09T04:14:41;99073.14;;;19.19;54.41
75745;BME280;64359;51.366;-0.222;2023-01-09T04:15:45;99073.23;;;19.19;54.32
75745;BME280;64359;51.366;-0.222;2023-01-09T04:16:50;99069.49;;;19.18;54.34
75745;BME280;64359;51.366;-0.222;2023-01-09T04:17:54;99077.88;;;19.18;54.43
75745;BME280;64359;51.366;-0.222;2023-01-09T04:18:58;99075.27;;;19.17;54.57
75745;BME280;64359;51.366;-0.222;2023-01-09T04:20:04;99076.67;;;19.16;54.56
75745;BME280;64359;51.366;-0.222;2023-01-09T04:21:08;99079.08;;;19.15;54.59
75745;BME280;64359;51.366;-0.222;2023-01-09T04:22:13;99085.45;;;19.14;54.69
75745;BME280;64359;51.366;-0.222;2023-01-09T04:23:17;99085.12;;;19.13;54.64
75745;BME280;64359;51.366;-0.222;2023-01-09T04:24:21;99087.57;;;19.13;54.84
75745;BME280;64359;51.366;-0.222;2023-01-09T04:25:26;99090.98;;;19.13;54.73
75745;BME280;64359;51.366;-0.222;2023-01-09T04:26:30;99092.97;;;19.13;54.99
75745;BME280;64359;51.366;-0.222;2023-01-09T04:27:35;99093.75;;;19.13;54.96
75745;BME280;64359;51.366;-0.222;2023-01-09T04:28:39;99098.02;;;19.14;55.03
75745;BME280;64359;51.366;-0.222;2023-01-09T04:29:43;99099.56;;;19.14;55.06
75745;BME280;64359;51.366;-0.222;2023-01-09T04:30:48;99101.17;;;19.15;55.07
75745;BME280;64359;51.366;-0.222;2023-01-09T04:31:52;99102.88;;;19.16;55.09
75745;BME280;64359;51.366;-0.222;2023-01-09T04:32:56;99106.70;;;19.19;55.21
75745;BME280;64359;51.366;-0.222;2023-01-09T04:34:01;99104.70;;;19.20;55.19
75745;BME280;64359;51.366;-0.222;2023-01-09T04:35:07;99108.55;;;19.22;55.25
75745;BME280;64359;51.366;-0.222;2023-01-09T04:36:12;99105.91;;;19.24;55.11
75745;BME280;64359;51.366;-0.222;2023-01-09T04:37:16;99102.98;;;19.27;55.16
75745;BME280;64359;51.366;-0.222;2023-01-09T04:38:20;99108.08;;;19.29;55.17
75745;BME280;64359;51.366;-0.222;2023-01-09T04:39:25;99109.71;;;19.31;55.06
75745;BME280;64359;51.366;-0.222;2023-01-09T04:40:29;99112.14;;;19.35;55.18
75745;BME280;64359;51.366;-0.222;2023-01-09T04:41:33;99115.74;;;19.37;55.11
75745;BME280;64359;51.366;-0.222;2023-01-09T04:42:53;99116.39;;;19.40;55.14
75745;BME280;64359;51.366;-0.222;2023-01-09T04:43:57;99122.33;;;19.43;55.04
75745;BME280;64359;51.366;-0.222;2023-01-09T04:45:02;99122.48;;;19.46;55.13
75745;BME280;64359;51.366;-0.222;2023-01-09T04:46:07;99122.02;;;19.49;55.02
75745;BME280;64359;51.366;-0.222;2023-01-09T04:47:11;99119.55;;;19.52;55.03
75745;BME280;64359;51.366;-0.222;2023-01-09T04:48:16;99125.36;;;19.55;55.05
75745;BME280;64359;51.366;-0.222;2023-01-09T04:49:21;99127.20;;;19.59;55.08
75745;BME280;64359;51.366;-0.222;2023-01-09T04:50:25;99122.48;;;19.62;54.93
75745;BME280;64359;51.366;-0.222;2023-01-09T04:51:29;99128.96;;;19.65;54.89
75745;BME280;64359;51.366;-0.222;2023-01-09T04:52:34;99131.19;;;19.68;54.97
75745;BME280;64359;51.366;-0.222;2023-01-09T04:53:38;99132.90;;;19.71;54.82
75745;BME280;64359;51.366;-0.222;2023-01-09T04:54:43;99131.49;;;19.75;54.69
75745;BME280;64359;51.366;-0.222;2023-01-09T04:55:47;99132.46;;;19.77;54.66
75745;BME280;64359;51.366;-0.222;2023-01-09T04:56:51;99131.39;;;19.81;54.78
75745;BME280;64359;51.366;-0.222;2023-01-09T04:57:56;99132.06;;;19.84;54.59
75745;BME280;64359;51.366;-0.222;2023-01-09T04:59:00;99131.20;;;19.88;54.67
75745;BME280;64359;51.366;-0.222;2023-01-09T05:00:06;99131.90;;;19.91;54.53
75745;BME280;64359;51.366;-0.222;2023-01-09T05:01:14;99130.63;;;19.94;54.49
75745;BME280;64359;51.366;-0.222;2023-01-09T05:02:18;99132.84;;;19.98;54.57
75745;BME280;64359;51.366;-0.222;2023-01-09T05:03:22;99134.02;;;20.00;54.51
75745;BME280;64359;51.366;-0.222;2023-01-09T05:04:27;99129.81;;;20.03;54.30
75745;BME280;64359;51.366;-0.222;2023-01-09T05:05:31;99129.42;;;20.06;54.38
75745;BME280;64359;51.366;-0.222;2023-01-09T05:06:35;99131.26;;;20.09;54.25
75745;BME280;64359;51.366;-0.222;2023-01-09T05:07:40;99132.95;;;20.13;54.20
75745;BME280;64359;51.366;-0.222;2023-01-09T05:08:44;99137.37;;;20.16;54.12
75745;BME280;64359;51.366;-0.222;2023-01-09T05:09:49;99137.27;;;20.18;54.07
75745;BME280;64359;51.366;-0.222;2023-01-09T05:10:53;99143.30;;;20.21;54.04
75745;BME280;64359;51.366;-0.222;2023-01-09T05:11:57;99140.73;;;20.23;54.09
75745;BME280;64359;51.366;-0.222;2023-01-09T05:13:02;99143.91;;;20.27;53.89
75745;BME280;64359;51.366;-0.222;2023-01-09T05:14:06;99144.17;;;20.29;53.83
75745;BME280;64359;51.366;-0.222;2023-01-09T05:15:11;99149.27;;;20.31;53.90
75745;BME280;64359;51.366;-0.222;2023-01-09T05:16:16;99151.98;;;20.33;53.92
75745;BME280;64359;51.366;-0.222;2023-01-09T05:17:20;99151.11;;;20.35;53.73
75745;BME280;64359;51.366;-0.222;2023-01-09T05:18:24;99155.13;;;20.37;53.74
75745;BME280;64359;51.366;-0.222;2023-01-09T05:19:29;99155.94;;;20.39;53.73
75745;BME280;64359;51.366;-0.222;2023-01-09T05:20:33;99158.52;;;20.41;53.61
75745;BME280;64359;51.366;-0.222;2023-01-09T05:21:38;99162.58;;;20.43;53.62
75745;BME280;64359;51.366;-0.222;2023-01-09T05:22:42;99166.39;;;20.46;53.57
75745;BME280;64359;51.366;-0.222;2023-01-09T05:23:46;99164.27;;;20.47;53.59
75745;BME280;64359;51.366;-0.222;2023-01-09T05:24:51;99167.16;;;20.50;53.50
75745;BME280;64359;51.366;-0.222;2023-01-09T05:25:55;99170.01;;;20.53;53.42
75745;BME280;64359;51.366;-0.222;2023-01-09T05:26:59;99172.05;;;20.55;53.42
75745;BME280;64359;51.366;-0.222;2023-01-09T05:28:05;99169.91;;;20.57;53.34
75745;BME280;64359;51.366;-0.222;2023-01-09T05:29:10;99171.49;;;20.59;53.26
75745;BME280;64359;51.366;-0.222;2023-01-09T05:30:14;99173.84;;;20.61;53.23
75745;BME280;64359;51.366;-0.222;2023-01-09T05:31:19;99173.16;;;20.62;53.20
75745;BME280;64359;51.366;-0.222;2023-01-09T05:32:23;99179.03;;;20.65;53.17
75745;BME280;64359;51.366;-0.222;2023-01-09T05:33:28;99181.30;;;20.67;53.08
75745;BME280;64359;51.366;-0.222;2023-01-09T05:34:32;99180.99;;;20.69;53.11
75745;BME280;64359;51.366;-0.222;2023-01-09T05:35:37;99182.55;;;20.70;52.96
75745;BME280;64359;51.366;-0.222;2023-01-09T05:36:41;99187.10;;;20.73;52.99
75745;BME280;64359;51.366;-0.222;2023-01-09T05:37:45;99186.78;;;20.75;52.86
75745;BME280;64359;51.366;-0.222;2023-01-09T05:38:50;99190.84;;;20.76;52.89
75745;BME280;64359;51.366;-0.222;2023-01-09T05:39:54;99191.11;;;20.78;52.90
75745;BME280;64359;51.366;-0.222;2023-01-09T05:40:58;99192.13;;;20.80;52.82
75745;BME280;64359;51.366;-0.222;2023-01-09T05:42:03;99189.73;;;20.81;52.75
75745;BME280;64359;51.366;-0.222;2023-01-09T05:43:07;99190.54;;;20.82;52.74
75745;BME280;64359;51.366;-0.222;2023-01-09T05:44:12;99192.70;;;20.83;52.67
75745;BME280;64359;51.366;-0.222;2023-01-09T05:45:16;99194.73;;;20.84;52.62
75745;BME280;64359;51.366;-0.222;2023-01-09T05:46:21;99193.95;;;20.86;52.60
75745;BME280;64359;51.366;-0.222;2023-01-09T05:47:25;99195.75;;;20.89;52.61
75745;BME280;64359;51.366;-0.222;2023-01-09T05:48:29;99198.30;;;20.91;52.58
75745;BME280;64359;51.366;-0.222;2023-01-09T05:49:34;99201.66;;;20.93;52.50
75745;BME280;64359;51.366;-0.222;2023-01-09T05:50:38;99200.89;;;20.94;52.47